sensor_id;sensor_type;location;lat;lon;timestamp;P1;durP1;ratioP1;P2;durP2;ratioP2
5519;SDS011;2782;52.362;10.012;2023-06-24T00:00:38;8.53;;;5.50;;
5519;SDS011;2782;52.362;10.012;2023-06-24T00:01:40;9.50;;;5.40;;
5519;SDS011;2782;52.362;10.012;2023-06-24T00:02:41;8.13;;;6.30;;
5519;SDS011;2782;52.362;10.012;2023-06-24T00:03:45;6.72;;;4.93;;
5519;SDS011;2782;52.362;10.012;2023-06-24T00:04:46;16.45;;;5.50;;
5519;SDS011;2782;52.362;10.012;2023-06-24T00:05:48;8.43;;;5.65;;
5519;SDS011;2782;52.362;10.012;2023-06-24T00:06:49;5.70;;;4.60;;
5519;SDS011;2782;52.362;10.012;2023-06-24T00:07:52;7.10;;;5.70;;
5519;SDS011;2782;52.362;10.012;2023-06-24T00:08:56;10.50;;;5.40;;
5519;SDS011;2782;52.362;10.012;2023-06-24T00:10:00;9.38;;;5.75;;
5519;SDS011;2782;52.362;10.012;2023-06-24T00:11:04;6.93;;;5.78;;
5519;SDS011;2782;52.362;10.012;2023-06-24T00:12:07;10.77;;;5.90;;
5519;SDS011;2782;52.362;10.012;2023-06-24T00:13:08;7.50;;;4.72;;
5519;SDS011;2782;52.362;10.012;2023-06-24T00:14:10;6.28;;;5.25;;
5519;SDS011;2782;52.362;10.012;2023-06-24T00:15:11;11.13;;;5.60;;
5519;SDS011;2782;52.362;10.012;2023-06-24T00:16:13;5.07;;;4.43;;
5519;SDS011;2782;52.362;10.012;2023-06-24T00:17:14;6.77;;;4.90;;
5519;SDS011;2782;52.362;10.012;2023-06-24T00:18:16;7.47;;;5.28;;
5519;SDS011;2782;52.362;10.012;2023-06-24T00:19:18;5.50;;;5.00;;
5519;SDS011;2782;52.362;10.012;2023-06-24T00:20:20;14.00;;;5.60;;
5519;SDS011;2782;52.362;10.012;2023-06-24T00:21:21;7.67;;;5.00;;
5519;SDS011;2782;52.362;10.012;2023-06-24T00:22:22;10.85;;;5.38;;
5519;SDS011;2782;52.362;10.012;2023-06-24T00:23:23;10.30;;;5.27;;
5519;SDS011;2782;52.362;10.012;2023-06-24T00:24:25;9.60;;;5.85;;
5519;SDS011;2782;52.362;10.012;2023-06-24T00:25:26;8.47;;;5.33;;
5519;SDS011;2782;52.362;10.012;2023-06-24T00:26:29;9.35;;;5.43;;
5519;SDS011;2782;52.362;10.012;2023-06-24T00:27:29;16.10;;;5.40;;
5519;SDS011;2782;52.362;10.012;2023-06-24T00:28:31;7.38;;;5.15;;
5519;SDS011;2782;52.362;10.012;2023-06-24T00:29:32;12.00;;;6.80;;
5519;SDS011;2782;52.362;10.012;2023-06-24T00:30:33;9.68;;;6.05;;
5519;SDS011;2782;52.362;10.012;2023-06-24T00:31:34;10.23;;;5.80;;
5519;SDS011;2782;52.362;10.012;2023-06-24T00:32:36;6.78;;;5.50;;
5519;SDS011;2782;52.362;10.012;2023-06-24T00:33:36;9.83;;;5.60;;
5519;SDS011;2782;52.362;10.012;2023-06-24T00:34:38;9.60;;;5.75;;
5519;SDS011;2782;52.362;10.012;2023-06-24T00:35:43;8.82;;;5.97;;
5519;SDS011;2782;52.362;10.012;2023-06-24T00:36:44;9.95;;;5.88;;
5519;SDS011;2782;52.362;10.012;2023-06-24T00:37:46;10.55;;;6.30;;
5519;SDS011;2782;52.362;10.012;2023-06-24T00:38:49;10.43;;;5.88;;
5519;SDS011;2782;52.362;10.012;2023-06-24T00:39:49;7.63;;;6.10;;
5519;SDS011;2782;52.362;10.012;2023-06-24T00:40:51;9.50;;;6.57;;
5519;SDS011;2782;52.362;10.012;2023-06-24T00:41:53;8.07;;;5.90;;
5519;SDS011;2782;52.362;10.012;2023-06-24T00:42:55;17.98;;;5.82;;
5519;SDS011;2782;52.362;10.012;2023-06-24T00:43:56;12.60;;;6.27;;
5519;SDS011;2782;52.362;10.012;2023-06-24T00:44:58;9.30;;;5.40;;
5519;SDS011;2782;52.362;10.012;2023-06-24T00:45:59;9.02;;;5.25;;
5519;SDS011;2782;52.362;10.012;2023-06-24T00:47:02;13.52;;;5.85;;
5519;SDS011;2782;52.362;10.012;2023-06-24T00:48:03;12.35;;;6.40;;
5519;SDS011;2782;52.362;10.012;2023-06-24T00:49:05;10.23;;;5.38;;
5519;SDS011;2782;52.362;10.012;2023-06-24T00:50:06;8.20;;;6.00;;
5519;SDS011;2782;52.362;10.012;2023-06-24T00:51:08;10.70;;;6.20;;
5519;SDS011;2782;52.362;10.012;2023-06-24T00:52:08;7.33;;;5.43;;
5519;SDS011;2782;52.362;10.012;2023-06-24T00:53:15;8.38;;;5.50;;
5519;SDS011;2782;52.362;10.012;2023-06-24T00:54:16;7.00;;;5.57;;
5519;SDS011;2782;52.362;10.012;2023-06-24T00:55:18;7.30;;;5.50;;
5519;SDS011;2782;52.362;10.012;2023-06-24T00:56:20;10.93;;;5.90;;
5519;SDS011;2782;52.362;10.012;2023-06-24T00:57:24;7.60;;;5.50;;
5519;SDS011;2782;52.362;10.012;2023-06-24T00:58:25;8.15;;;5.97;;
5519;SDS011;2782;52.362;10.012;2023-06-24T00:59:27;11.85;;;5.63;;
5519;SDS011;2782;52.362;10.012;2023-06-24T01:00:30;6.35;;;4.80;;
5519;SDS011;2782;52.362;10.012;2023-06-24T01:01:33;9.57;;;5.35;;
5519;SDS011;2782;52.362;10.012;2023-06-24T01:02:35;8.95;;;5.22;;
5519;SDS011;2782;52.362;10.012;2023-06-24T01:03:37;12.65;;;5.05;;
5519;SDS011;2782;52.362;10.012;2023-06-24T01:04:38;8.45;;;5.25;;
5519;SDS011;2782;52.362;10.012;2023-06-24T01:05:41;5.28;;;4.78;;
5519;SDS011;2782;52.362;10.012;2023-06-24T01:06:43;9.32;;;5.15;;
5519;SDS011;2782;52.362;10.012;2023-06-24T01:07:45;12.73;;;5.07;;
5519;SDS011;2782;52.362;10.012;2023-06-24T01:08:55;7.05;;;4.55;;
5519;SDS011;2782;52.362;10.012;2023-06-24T01:09:57;5.78;;;4.97;;
5519;SDS011;2782;52.362;10.012;2023-06-24T01:10:57;8.20;;;5.30;;
5519;SDS011;2782;52.362;10.012;2023-06-24T01:11:59;6.57;;;4.35;;
5519;SDS011;2782;52.362;10.012;2023-06-24T01:13:01;8.07;;;5.40;;
5519;SDS011;2782;52.362;10.012;2023-06-24T01:14:02;11.10;;;5.40;;
5519;SDS011;2782;52.362;10.012;2023-06-24T01:15:04;5.47;;;4.70;;
5519;SDS011;2782;52.362;10.012;2023-06-24T01:16:09;12.45;;;5.78;;
5519;SDS011;2782;52.362;10.012;2023-06-24T01:17:14;9.43;;;5.88;;
5519;SDS011;2782;52.362;10.012;2023-06-24T01:18:20;11.48;;;5.18;;
5519;SDS011;2782;52.362;10.012;2023-06-24T01:19:37;10.55;;;5.70;;
5519;SDS011;2782;52.362;10.012;2023-06-24T01:20:55;8.57;;;5.85;;
5519;SDS011;2782;52.362;10.012;2023-06-24T01:22:05;8.18;;;5.22;;
5519;SDS011;2782;52.362;10.012;2023-06-24T01:24:55;6.80;;;5.22;;
5519;SDS011;2782;52.362;10.012;2023-06-24T01:29:09;13.45;;;5.35;;
5519;SDS011;2782;52.362;10.012;2023-06-24T01:30:38;10.07;;;5.10;;
5519;SDS011;2782;52.362;10.012;2023-06-24T01:31:50;12.27;;;5.13;;
5519;SDS011;2782;52.362;10.012;2023-06-24T01:32:55;9.55;;;5.50;;
5519;SDS011;2782;52.362;10.012;2023-06-24T01:34:01;11.05;;;5.13;;
5519;SDS011;2782;52.362;10.012;2023-06-24T01:35:08;10.23;;;5.10;;
5519;SDS011;2782;52.362;10.012;2023-06-24T01:36:12;14.18;;;6.10;;
5519;SDS011;2782;52.362;10.012;2023-06-24T01:37:17;6.68;;;4.85;;
5519;SDS011;2782;52.362;10.012;2023-06-24T01:38:22;7.00;;;5.25;;
5519;SDS011;2782;52.362;10.012;2023-06-24T01:39:27;9.50;;;4.55;;
5519;SDS011;2782;52.362;10.012;2023-06-24T01:40:32;7.15;;;4.65;;
5519;SDS011;2782;52.362;10.012;2023-06-24T01:41:41;8.23;;;5.20;;
5519;SDS011;2782;52.362;10.012;2023-06-24T01:42:44;8.70;;;4.70;;
5519;SDS011;2782;52.362;10.012;2023-06-24T01:43:47;10.40;;;4.30;;
5519;SDS011;2782;52.362;10.012;2023-06-24T01:44:51;7.75;;;4.70;;
5519;SDS011;2782;52.362;10.012;2023-06-24T01:45:54;10.75;;;4.45;;
5519;SDS011;2782;52.362;10.012;2023-06-24T01:46:58;4.32;;;3.92;;
5519;SDS011;2782;52.362;10.012;2023-06-24T01:48:02;6.93;;;4.38;;
5519;SDS011;2782;52.362;10.012;2023-06-24T01:49:07;10.75;;;5.25;;
5519;SDS011;2782;52.362;10.012;2023-06-24T01:50:14;5.70;;;4.25;;
5519;SDS011;2782;52.362;10.012;2023-06-24T01:51:20;6.35;;;4.70;;
5519;SDS011;2782;52.362;10.012;2023-06-24T01:52:22;6.63;;;4.18;;
5519;SDS011;2782;52.362;10.012;2023-06-24T01:53:26;5.80;;;4.10;;
5519;SDS011;2782;52.362;10.012;2023-06-24T01:54:29;5.68;;;4.70;;
5519;SDS011;2782;52.362;10.012;2023-06-24T01:57:28;5.78;;;4.72;;
5519;SDS011;2782;52.362;10.012;2023-06-24T01:58:33;7.28;;;4.50;;
5519;SDS011;2782;52.362;10.012;2023-06-24T01:59:37;5.57;;;4.47;;
5519;SDS011;2782;52.362;10.012;2023-06-24T02:00:41;11.02;;;4.95;;
5519;SDS011;2782;52.362;10.012;2023-06-24T02:04:52;12.05;;;5.13;;
5519;SDS011;2782;52.362;10.012;2023-06-24T02:05:55;8.95;;;4.35;;
5519;SDS011;2782;52.362;10.012;2023-06-24T02:06:57;6.20;;;4.40;;
5519;SDS011;2782;52.362;10.012;2023-06-24T02:08:02;5.40;;;4.20;;
5519;SDS011;2782;52.362;10.012;2023-06-24T02:09:03;9.05;;;4.55;;
5519;SDS011;2782;52.362;10.012;2023-06-24T02:10:07;4.90;;;4.05;;
5519;SDS011;2782;52.362;10.012;2023-06-24T02:11:09;8.10;;;4.80;;
5519;SDS011;2782;52.362;10.012;2023-06-24T02:12:11;12.40;;;3.80;;
5519;SDS011;2782;52.362;10.012;2023-06-24T02:13:12;5.90;;;3.97;;
5519;SDS011;2782;52.362;10.012;2023-06-24T02:14:14;4.18;;;3.78;;
5519;SDS011;2782;52.362;10.012;2023-06-24T02:15:17;7.68;;;4.40;;
5519;SDS011;2782;52.362;10.012;2023-06-24T02:16:20;6.18;;;3.50;;
5519;SDS011;2782;52.362;10.012;2023-06-24T02:17:21;6.60;;;4.03;;
5519;SDS011;2782;52.362;10.012;2023-06-24T02:18:25;5.10;;;3.92;;
5519;SDS011;2782;52.362;10.012;2023-06-24T02:19:29;7.45;;;4.55;;
5519;SDS011;2782;52.362;10.012;2023-06-24T02:20:33;5.10;;;4.05;;
5519;SDS011;2782;52.362;10.012;2023-06-24T02:21:34;5.35;;;3.92;;
5519;SDS011;2782;52.362;10.012;2023-06-24T02:22:37;5.60;;;4.00;;
5519;SDS011;2782;52.362;10.012;2023-06-24T02:23:39;5.07;;;3.97;;
5519;SDS011;2782;52.362;10.012;2023-06-24T02:24:41;14.50;;;5.15;;
5519;SDS011;2782;52.362;10.012;2023-06-24T02:25:43;9.30;;;4.03;;
5519;SDS011;2782;52.362;10.012;2023-06-24T02:26:45;12.23;;;5.00;;
5519;SDS011;2782;52.362;10.012;2023-06-24T02:27:46;7.32;;;4.05;;
5519;SDS011;2782;52.362;10.012;2023-06-24T02:28:48;6.55;;;3.42;;
5519;SDS011;2782;52.362;10.012;2023-06-24T02:29:49;5.18;;;3.13;;
5519;SDS011;2782;52.362;10.012;2023-06-24T02:30:52;3.60;;;2.70;;
5519;SDS011;2782;52.362;10.012;2023-06-24T02:31:54;3.65;;;2.30;;
5519;SDS011;2782;52.362;10.012;2023-06-24T02:32:56;5.63;;;3.33;;
5519;SDS011;2782;52.362;10.012;2023-06-24T02:33:57;9.70;;;3.70;;
5519;SDS011;2782;52.362;10.012;2023-06-24T02:34:58;8.32;;;4.25;;
5519;SDS011;2782;52.362;10.012;2023-06-24T02:36:00;6.40;;;3.53;;
5519;SDS011;2782;52.362;10.012;2023-06-24T02:37:02;8.82;;;4.70;;
5519;SDS011;2782;52.362;10.012;2023-06-24T02:38:03;8.27;;;4.30;;
5519;SDS011;2782;52.362;10.012;2023-06-24T02:39:04;7.15;;;4.78;;
5519;SDS011;2782;52.362;10.012;2023-06-24T02:40:06;7.80;;;4.10;;
5519;SDS011;2782;52.362;10.012;2023-06-24T02:41:10;9.70;;;4.80;;
5519;SDS011;2782;52.362;10.012;2023-06-24T02:42:10;8.57;;;4.70;;
5519;SDS011;2782;52.362;10.012;2023-06-24T02:43:13;9.30;;;4.93;;
5519;SDS011;2782;52.362;10.012;2023-06-24T02:44:14;10.82;;;4.55;;
5519;SDS011;2782;52.362;10.012;2023-06-24T02:45:15;11.88;;;4.63;;
5519;SDS011;2782;52.362;10.012;2023-06-24T02:46:16;6.05;;;4.78;;
5519;SDS011;2782;52.362;10.012;2023-06-24T02:47:19;13.88;;;5.40;;
5519;SDS011;2782;52.362;10.012;2023-06-24T02:48:21;6.75;;;4.90;;
5519;SDS011;2782;52.362;10.012;2023-06-24T02:49:23;9.07;;;5.38;;
5519;SDS011;2782;52.362;10.012;2023-06-24T02:50:25;9.38;;;4.30;;
5519;SDS011;2782;52.362;10.012;2023-06-24T02:51:29;7.90;;;4.43;;
5519;SDS011;2782;52.362;10.012;2023-06-24T02:52:30;7.75;;;4.70;;
5519;SDS011;2782;52.362;10.012;2023-06-24T02:53:32;6.38;;;4.15;;
5519;SDS011;2782;52.362;10.012;2023-06-24T02:54:33;9.75;;;4.68;;
5519;SDS011;2782;52.362;10.012;2023-06-24T02:55:39;15.35;;;4.90;;
5519;SDS011;2782;52.362;10.012;2023-06-24T02:56:41;5.90;;;4.00;;
5519;SDS011;2782;52.362;10.012;2023-06-24T02:57:44;11.40;;;4.80;;
5519;SDS011;2782;52.362;10.012;2023-06-24T02:58:45;11.47;;;4.47;;
5519;SDS011;2782;52.362;10.012;2023-06-24T02:59:46;8.15;;;4.70;;
5519;SDS011;2782;52.362;10.012;2023-06-24T03:00:48;5.97;;;4.07;;
5519;SDS011;2782;52.362;10.012;2023-06-24T03:01:49;8.02;;;4.32;;
5519;SDS011;2782;52.362;10.012;2023-06-24T03:02:51;10.07;;;5.28;;
5519;SDS011;2782;52.362;10.012;2023-06-24T03:03:53;15.30;;;4.90;;
5519;SDS011;2782;52.362;10.012;2023-06-24T03:04:54;8.60;;;3.85;;
5519;SDS011;2782;52.362;10.012;2023-06-24T03:05:57;10.70;;;5.00;;
5519;SDS011;2782;52.362;10.012;2023-06-24T03:06:59;10.02;;;4.55;;
5519;SDS011;2782;52.362;10.012;2023-06-24T03:08:02;8.60;;;4.40;;
5519;SDS011;2782;52.362;10.012;2023-06-24T03:09:04;12.43;;;4.18;;
5519;SDS011;2782;52.362;10.012;2023-06-24T03:10:07;17.15;;;5.20;;
5519;SDS011;2782;52.362;10.012;2023-06-24T03:11:12;13.90;;;4.68;;
5519;SDS011;2782;52.362;10.012;2023-06-24T03:12:13;16.35;;;4.65;;
5519;SDS011;2782;52.362;10.012;2023-06-24T03:13:14;7.53;;;4.10;;
5519;SDS011;2782;52.362;10.012;2023-06-24T03:14:15;8.75;;;3.83;;
5519;SDS011;2782;52.362;10.012;2023-06-24T03:15:17;4.82;;;4.18;;
5519;SDS011;2782;52.362;10.012;2023-06-24T03:16:18;17.70;;;4.70;;
5519;SDS011;2782;52.362;10.012;2023-06-24T03:17:20;13.32;;;5.07;;
5519;SDS011;2782;52.362;10.012;2023-06-24T03:18:20;9.73;;;5.07;;
5519;SDS011;2782;52.362;10.012;2023-06-24T03:19:22;10.88;;;4.57;;
5519;SDS011;2782;52.362;10.012;2023-06-24T03:20:22;14.20;;;4.60;;
5519;SDS011;2782;52.362;10.012;2023-06-24T03:21:24;6.32;;;3.80;;
5519;SDS011;2782;52.362;10.012;2023-06-24T03:22:29;7.57;;;4.07;;
5519;SDS011;2782;52.362;10.012;2023-06-24T03:23:31;11.25;;;4.30;;
5519;SDS011;2782;52.362;10.012;2023-06-24T03:24:32;10.80;;;3.70;;
5519;SDS011;2782;52.362;10.012;2023-06-24T03:25:33;6.32;;;3.50;;
5519;SDS011;2782;52.362;10.012;2023-06-24T03:26:34;10.53;;;3.90;;
5519;SDS011;2782;52.362;10.012;2023-06-24T03:27:36;7.32;;;4.63;;
5519;SDS011;2782;52.362;10.012;2023-06-24T03:28:37;9.90;;;3.63;;
5519;SDS011;2782;52.362;10.012;2023-06-24T03:29:39;5.97;;;3.53;;
5519;SDS011;2782;52.362;10.012;2023-06-24T03:30:39;10.03;;;3.73;;
5519;SDS011;2782;52.362;10.012;2023-06-24T03:31:41;8.48;;;3.88;;
5519;SDS011;2782;52.362;10.012;2023-06-24T03:32:44;8.07;;;3.40;;
5519;SDS011;2782;52.362;10.012;2023-06-24T03:33:47;9.68;;;3.95;;
5519;SDS011;2782;52.362;10.012;2023-06-24T03:34:47;6.50;;;3.97;;
5519;SDS011;2782;52.362;10.012;2023-06-24T03:35:49;9.77;;;4.00;;
5519;SDS011;2782;52.362;10.012;2023-06-24T03:36:49;9.47;;;4.13;;
5519;SDS011;2782;52.362;10.012;2023-06-24T03:37:52;8.27;;;4.20;;
5519;SDS011;2782;52.362;10.012;2023-06-24T03:38:53;9.82;;;4.78;;
5519;SDS011;2782;52.362;10.012;2023-06-24T03:39:55;16.33;;;4.70;;
5519;SDS011;2782;52.362;10.012;2023-06-24T03:40:56;10.25;;;4.15;;
5519;SDS011;2782;52.362;10.012;2023-06-24T03:41:57;9.90;;;4.65;;
5519;SDS011;2782;52.362;10.012;2023-06-24T03:42:58;6.00;;;3.93;;
5519;SDS011;2782;52.362;10.012;2023-06-24T03:44:00;7.95;;;3.80;;
5519;SDS011;2782;52.362;10.012;2023-06-24T03:45:01;8.80;;;4.30;;
5519;SDS011;2782;52.362;10.012;2023-06-24T03:46:03;14.55;;;5.50;;
5519;SDS011;2782;52.362;10.012;2023-06-24T03:47:04;8.03;;;4.23;;
5519;SDS011;2782;52.362;10.012;2023-06-24T03:48:05;13.30;;;4.57;;
5519;SDS011;2782;52.362;10.012;2023-06-24T03:49:07;9.23;;;4.68;;
5519;SDS011;2782;52.362;10.012;2023-06-24T03:50:09;10.30;;;4.95;;
5519;SDS011;2782;52.362;10.012;2023-06-24T03:51:10;19.00;;;4.68;;
5519;SDS011;2782;52.362;10.012;2023-06-24T03:52:11;9.48;;;4.28;;
5519;SDS011;2782;52.362;10.012;2023-06-24T03:53:13;6.93;;;3.60;;
5519;SDS011;2782;52.362;10.012;2023-06-24T03:54:15;9.77;;;3.92;;
5519;SDS011;2782;52.362;10.012;2023-06-24T03:55:15;9.83;;;4.20;;
5519;SDS011;2782;52.362;10.012;2023-06-24T03:56:17;10.73;;;4.43;;
5519;SDS011;2782;52.362;10.012;2023-06-24T03:57:18;7.40;;;4.40;;
5519;SDS011;2782;52.362;10.012;2023-06-24T03:58:19;10.18;;;4.07;;
5519;SDS011;2782;52.362;10.012;2023-06-24T03:59:21;5.30;;;3.50;;
5519;SDS011;2782;52.362;10.012;2023-06-24T04:00:22;7.80;;;4.30;;
5519;SDS011;2782;52.362;10.012;2023-06-24T04:01:23;7.53;;;4.10;;
5519;SDS011;2782;52.362;10.012;2023-06-24T04:02:24;5.60;;;3.65;;
5519;SDS011;2782;52.362;10.012;2023-06-24T04:03:26;13.27;;;4.50;;
5519;SDS011;2782;52.362;10.012;2023-06-24T04:04:28;5.95;;;4.25;;
5519;SDS011;2782;52.362;10.012;2023-06-24T04:05:29;10.37;;;4.57;;
5519;SDS011;2782;52.362;10.012;2023-06-24T04:06:30;7.97;;;4.30;;
5519;SDS011;2782;52.362;10.012;2023-06-24T04:07:31;7.00;;;4.10;;
5519;SDS011;2782;52.362;10.012;2023-06-24T04:08:34;10.00;;;4.47;;
5519;SDS011;2782;52.362;10.012;2023-06-24T04:09:39;10.52;;;4.32;;
5519;SDS011;2782;52.362;10.012;2023-06-24T04:10:40;9.73;;;4.80;;
5519;SDS011;2782;52.362;10.012;2023-06-24T04:11:43;9.45;;;4.47;;
5519;SDS011;2782;52.362;10.012;2023-06-24T04:12:44;10.00;;;5.20;;
5519;SDS011;2782;52.362;10.012;2023-06-24T04:13:45;9.53;;;4.60;;
5519;SDS011;2782;52.362;10.012;2023-06-24T04:14:48;7.85;;;4.53;;
5519;SDS011;2782;52.362;10.012;2023-06-24T04:15:49;8.33;;;4.57;;
5519;SDS011;2782;52.362;10.012;2023-06-24T04:16:50;10.10;;;5.00;;
5519;SDS011;2782;52.362;10.012;2023-06-24T04:17:51;9.53;;;4.60;;
5519;SDS011;2782;52.362;10.012;2023-06-24T04:18:53;10.13;;;4.63;;
5519;SDS011;2782;52.362;10.012;2023-06-24T04:19:53;10.20;;;5.90;;
5519;SDS011;2782;52.362;10.012;2023-06-24T04:20:55;13.02;;;4.57;;
5519;SDS011;2782;52.362;10.012;2023-06-24T04:21:56;13.27;;;5.78;;
5519;SDS011;2782;52.362;10.012;2023-06-24T04:22:58;11.60;;;5.07;;
5519;SDS011;2782;52.362;10.012;2023-06-24T04:24:00;10.50;;;4.10;;
5519;SDS011;2782;52.362;10.012;2023-06-24T04:25:01;11.07;;;5.18;;
5519;SDS011;2782;52.362;10.012;2023-06-24T04:26:02;11.70;;;5.87;;
5519;SDS011;2782;52.362;10.012;2023-06-24T04:27:05;7.07;;;4.75;;
5519;SDS011;2782;52.362;10.012;2023-06-24T04:28:06;10.40;;;5.20;;
5519;SDS011;2782;52.362;10.012;2023-06-24T04:29:08;7.78;;;4.53;;
5519;SDS011;2782;52.362;10.012;2023-06-24T04:30:09;7.80;;;4.90;;
5519;SDS011;2782;52.362;10.012;2023-06-24T04:31:12;14.25;;;5.30;;
5519;SDS011;2782;52.362;10.012;2023-06-24T04:32:12;12.43;;;5.53;;
5519;SDS011;2782;52.362;10.012;2023-06-24T04:33:14;6.50;;;5.05;;
5519;SDS011;2782;52.362;10.012;2023-06-24T04:34:15;10.13;;;5.27;;
5519;SDS011;2782;52.362;10.012;2023-06-24T04:35:16;11.63;;;4.63;;
5519;SDS011;2782;52.362;10.012;2023-06-24T04:36:17;7.43;;;5.30;;
5519;SDS011;2782;52.362;10.012;2023-06-24T04:37:18;10.73;;;5.32;;
5519;SDS011;2782;52.362;10.012;2023-06-24T04:38:19;10.60;;;5.60;;
5519;SDS011;2782;52.362;10.012;2023-06-24T04:39:22;10.68;;;5.45;;
5519;SDS011;2782;52.362;10.012;2023-06-24T04:40:23;13.07;;;5.78;;
5519;SDS011;2782;52.362;10.012;2023-06-24T04:41:24;6.78;;;4.68;;
5519;SDS011;2782;52.362;10.012;2023-06-24T04:42:25;12.07;;;5.30;;
5519;SDS011;2782;52.362;10.012;2023-06-24T04:43:27;10.30;;;5.28;;
5519;SDS011;2782;52.362;10.012;2023-06-24T04:44:28;9.50;;;5.13;;
5519;SDS011;2782;52.362;10.012;2023-06-24T04:45:29;14.30;;;5.97;;
5519;SDS011;2782;52.362;10.012;2023-06-24T04:46:30;9.13;;;5.30;;
5519;SDS011;2782;52.362;10.012;2023-06-24T04:47:32;12.55;;;6.30;;
5519;SDS011;2782;52.362;10.012;2023-06-24T04:48:33;11.23;;;5.63;;
5519;SDS011;2782;52.362;10.012;2023-06-24T04:49:35;8.55;;;4.90;;
5519;SDS011;2782;52.362;10.012;2023-06-24T04:50:35;7.83;;;5.27;;
5519;SDS011;2782;52.362;10.012;2023-06-24T04:51:37;14.43;;;6.28;;
5519;SDS011;2782;52.362;10.012;2023-06-24T04:52:38;8.20;;;5.20;;
5519;SDS011;2782;52.362;10.012;2023-06-24T04:53:39;13.98;;;5.35;;
5519;SDS011;2782;52.362;10.012;2023-06-24T04:54:41;8.03;;;4.87;;
5519;SDS011;2782;52.362;10.012;2023-06-24T04:55:43;13.43;;;5.13;;
5519;SDS011;2782;52.362;10.012;2023-06-24T04:56:43;11.20;;;5.43;;
5519;SDS011;2782;52.362;10.012;2023-06-24T04:57:45;13.00;;;5.32;;
5519;SDS011;2782;52.362;10.012;2023-06-24T04:58:46;14.10;;;4.93;;
5519;SDS011;2782;52.362;10.012;2023-06-24T04:59:47;15.82;;;6.15;;
5519;SDS011;2782;52.362;10.012;2023-06-24T05:00:48;8.13;;;5.70;;
5519;SDS011;2782;52.362;10.012;2023-06-24T05:01:50;9.55;;;4.90;;
5519;SDS011;2782;52.362;10.012;2023-06-24T05:02:50;8.13;;;5.40;;
5519;SDS011;2782;52.362;10.012;2023-06-24T05:03:52;16.08;;;5.72;;
5519;SDS011;2782;52.362;10.012;2023-06-24T05:04:53;8.97;;;5.20;;
5519;SDS011;2782;52.362;10.012;2023-06-24T05:05:54;15.23;;;5.90;;
5519;SDS011;2782;52.362;10.012;2023-06-24T05:06:55;12.90;;;5.40;;
5519;SDS011;2782;52.362;10.012;2023-06-24T05:07:56;15.05;;;5.55;;
5519;SDS011;2782;52.362;10.012;2023-06-24T05:08:57;8.20;;;5.23;;
5519;SDS011;2782;52.362;10.012;2023-06-24T05:10:00;11.07;;;5.90;;
5519;SDS011;2782;52.362;10.012;2023-06-24T05:11:01;9.93;;;5.28;;
5519;SDS011;2782;52.362;10.012;2023-06-24T05:12:02;8.95;;;4.90;;
5519;SDS011;2782;52.362;10.012;2023-06-24T05:13:03;9.27;;;5.10;;
5519;SDS011;2782;52.362;10.012;2023-06-24T05:14:05;14.90;;;6.47;;
5519;SDS011;2782;52.362;10.012;2023-06-24T05:15:06;11.90;;;5.30;;
5519;SDS011;2782;52.362;10.012;2023-06-24T05:16:08;6.85;;;6.13;;
5519;SDS011;2782;52.362;10.012;2023-06-24T05:17:09;10.37;;;5.17;;
5519;SDS011;2782;52.362;10.012;2023-06-24T05:18:10;9.63;;;5.30;;
5519;SDS011;2782;52.362;10.012;2023-06-24T05:19:11;10.57;;;5.47;;
5519;SDS011;2782;52.362;10.012;2023-06-24T05:20:12;8.88;;;5.60;;
5519;SDS011;2782;52.362;10.012;2023-06-24T05:21:13;8.80;;;5.17;;
5519;SDS011;2782;52.362;10.012;2023-06-24T05:22:15;10.57;;;5.63;;
5519;SDS011;2782;52.362;10.012;2023-06-24T05:23:16;7.97;;;5.60;;
5519;SDS011;2782;52.362;10.012;2023-06-24T05:24:17;9.45;;;6.18;;
5519;SDS011;2782;52.362;10.012;2023-06-24T05:25:19;11.07;;;5.23;;
5519;SDS011;2782;52.362;10.012;2023-06-24T05:26:21;11.95;;;5.93;;
5519;SDS011;2782;52.362;10.012;2023-06-24T05:27:22;10.47;;;5.97;;
5519;SDS011;2782;52.362;10.012;2023-06-24T05:28:23;11.77;;;5.90;;
5519;SDS011;2782;52.362;10.012;2023-06-24T05:29:24;9.00;;;6.90;;
5519;SDS011;2782;52.362;10.012;2023-06-24T05:30:25;14.18;;;5.70;;
5519;SDS011;2782;52.362;10.012;2023-06-24T05:31:26;12.80;;;6.60;;
5519;SDS011;2782;52.362;10.012;2023-06-24T05:32:27;15.07;;;6.70;;
5519;SDS011;2782;52.362;10.012;2023-06-24T05:33:28;7.43;;;6.03;;
5519;SDS011;2782;52.362;10.012;2023-06-24T05:34:30;11.35;;;5.70;;
5519;SDS011;2782;52.362;10.012;2023-06-24T05:35:31;12.10;;;6.00;;
5519;SDS011;2782;52.362;10.012;2023-06-24T05:36:33;9.18;;;6.15;;
5519;SDS011;2782;52.362;10.012;2023-06-24T05:37:33;10.00;;;6.20;;
5519;SDS011;2782;52.362;10.012;2023-06-24T05:38:35;8.43;;;5.95;;
5519;SDS011;2782;52.362;10.012;2023-06-24T05:39:36;10.03;;;5.90;;
5519;SDS011;2782;52.362;10.012;2023-06-24T05:40:39;9.68;;;5.35;;
5519;SDS011;2782;52.362;10.012;2023-06-24T05:41:39;7.53;;;5.65;;
5519;SDS011;2782;52.362;10.012;2023-06-24T05:42:41;12.02;;;5.85;;
5519;SDS011;2782;52.362;10.012;2023-06-24T05:43:42;8.63;;;5.50;;
5519;SDS011;2782;52.362;10.012;2023-06-24T05:44:44;14.30;;;5.35;;
5519;SDS011;2782;52.362;10.012;2023-06-24T05:45:45;7.33;;;5.33;;
5519;SDS011;2782;52.362;10.012;2023-06-24T05:46:46;9.85;;;5.05;;
5519;SDS011;2782;52.362;10.012;2023-06-24T05:47:47;6.63;;;5.00;;
5519;SDS011;2782;52.362;10.012;2023-06-24T05:48:48;7.38;;;5.28;;
5519;SDS011;2782;52.362;10.012;2023-06-24T05:49:49;8.90;;;5.63;;
5519;SDS011;2782;52.362;10.012;2023-06-24T05:50:51;7.53;;;5.15;;
5519;SDS011;2782;52.362;10.012;2023-06-24T05:51:52;8.40;;;5.18;;
5519;SDS011;2782;52.362;10.012;2023-06-24T05:52:53;9.13;;;4.90;;
5519;SDS011;2782;52.362;10.012;2023-06-24T05:53:54;7.75;;;6.25;;
5519;SDS011;2782;52.362;10.012;2023-06-24T05:54:55;11.40;;;6.50;;
5519;SDS011;2782;52.362;10.012;2023-06-24T05:55:58;11.10;;;7.18;;
5519;SDS011;2782;52.362;10.012;2023-06-24T05:56:58;17.67;;;6.80;;
5519;SDS011;2782;52.362;10.012;2023-06-24T05:58:00;14.45;;;7.22;;
5519;SDS011;2782;52.362;10.012;2023-06-24T05:59:01;13.67;;;6.97;;
5519;SDS011;2782;52.362;10.012;2023-06-24T06:00:03;10.48;;;6.05;;
5519;SDS011;2782;52.362;10.012;2023-06-24T06:01:04;12.20;;;6.82;;
5519;SDS011;2782;52.362;10.012;2023-06-24T06:02:06;13.10;;;7.22;;
5519;SDS011;2782;52.362;10.012;2023-06-24T06:03:07;10.67;;;6.27;;
5519;SDS011;2782;52.362;10.012;2023-06-24T06:04:09;12.95;;;6.88;;
5519;SDS011;2782;52.362;10.012;2023-06-24T06:05:10;14.57;;;6.53;;
5519;SDS011;2782;52.362;10.012;2023-06-24T06:06:11;11.25;;;6.97;;
5519;SDS011;2782;52.362;10.012;2023-06-24T06:07:12;10.63;;;6.17;;
5519;SDS011;2782;52.362;10.012;2023-06-24T06:08:13;9.05;;;5.97;;
5519;SDS011;2782;52.362;10.012;2023-06-24T06:09:14;9.07;;;6.43;;
5519;SDS011;2782;52.362;10.012;2023-06-24T06:10:16;11.63;;;7.10;;
5519;SDS011;2782;52.362;10.012;2023-06-24T06:11:18;15.13;;;8.20;;
5519;SDS011;2782;52.362;10.012;2023-06-24T06:12:20;11.77;;;5.95;;
5519;SDS011;2782;52.362;10.012;2023-06-24T06:13:21;10.37;;;6.50;;
5519;SDS011;2782;52.362;10.012;2023-06-24T06:14:22;10.70;;;7.22;;
5519;SDS011;2782;52.362;10.012;2023-06-24T06:15:23;11.40;;;6.17;;
5519;SDS011;2782;52.362;10.012;2023-06-24T06:16:25;10.95;;;6.95;;
5519;SDS011;2782;52.362;10.012;2023-06-24T06:17:26;7.53;;;5.65;;
5519;SDS011;2782;52.362;10.012;2023-06-24T06:18:28;8.80;;;5.53;;
5519;SDS011;2782;52.362;10.012;2023-06-24T06:19:28;6.37;;;4.40;;
5519;SDS011;2782;52.362;10.012;2023-06-24T06:20:30;6.57;;;4.82;;
5519;SDS011;2782;52.362;10.012;2023-06-24T06:21:31;8.43;;;5.00;;
5519;SDS011;2782;52.362;10.012;2023-06-24T06:22:32;9.60;;;6.00;;
5519;SDS011;2782;52.362;10.012;2023-06-24T06:23:37;9.05;;;5.60;;
5519;SDS011;2782;52.362;10.012;2023-06-24T06:24:39;10.98;;;5.90;;
5519;SDS011;2782;52.362;10.012;2023-06-24T06:25:39;8.00;;;6.90;;
5519;SDS011;2782;52.362;10.012;2023-06-24T06:26:43;7.05;;;5.40;;
5519;SDS011;2782;52.362;10.012;2023-06-24T06:27:44;7.47;;;5.20;;